createdAt,value
2018-07-25T00:04:12.734Z,10.30
2018-07-25T00:09:14.914Z,10.90
2018-07-25T00:14:17.077Z,10.23
2018-07-25T00:19:19.237Z,10.00
2018-07-25T00:24:21.370Z,10.17
2018-07-25T00:29:23.497Z,10.07
2018-07-25T00:34:25.638Z,10.30
2018-07-25T00:39:27.789Z,9.97
2018-07-25T00:44:29.905Z,9.80
2018-07-25T00:49:32.024Z,10.13
2018-07-25T00:54:34.153Z,9.67
2018-07-25T00:59:36.278Z,10.20
2018-07-25T01:04:38.400Z,9.90
2018-07-25T01:09:40.578Z,10.07
2018-07-25T01:14:42.753Z,9.67
2018-07-25T01:19:44.921Z,10.77
2018-07-25T01:24:47.049Z,10.43
2018-07-25T01:29:49.174Z,11.20
2018-07-25T01:34:51.709Z,10.47
2018-07-25T01:39:53.859Z,10.30
2018-07-25T01:44:56.002Z,10.37
2018-07-25T01:49:58.156Z,9.93
2018-07-25T01:55:00.309Z,9.90
2018-07-25T02:00:02.474Z,10.03
2018-07-25T02:05:05.216Z,9.87
2018-07-25T02:10:07.349Z,9.97
2018-07-25T02:15:09.478Z,10.80
2018-07-25T02:20:11.629Z,10.77
2018-07-25T02:25:13.786Z,9.90
2018-07-25T02:30:15.948Z,9.80
2018-07-25T02:35:18.075Z,10.77
2018-07-25T02:40:20.240Z,11.00
2018-07-25T02:45:22.393Z,12.33
2018-07-25T02:50:24.553Z,12.90
2018-07-25T02:55:26.670Z,12.67
2018-07-25T03:00:28.794Z,14.97
2018-07-25T03:05:30.938Z,13.70
2018-07-25T03:10:33.057Z,13.60
2018-07-25T03:15:36.027Z,14.97
2018-07-25T03:20:38.174Z,14.53
2018-07-25T03:25:40.330Z,14.60
2018-07-25T03:30:42.496Z,14.77
2018-07-25T03:35:44.670Z,14.00
2018-07-25T03:40:47.369Z,14.57
2018-07-25T03:45:49.530Z,14.70
2018-07-25T03:50:51.681Z,14.20
2018-07-25T03:55:53.866Z,13.60
2018-07-25T04:00:56.014Z,13.63
2018-07-25T04:05:58.169Z,12.97
2018-07-25T04:11:00.330Z,12.97
2018-07-25T04:16:02.489Z,13.30
2018-07-25T04:21:04.642Z,13.00
2018-07-25T04:26:06.853Z,13.27
2018-07-25T04:31:08.997Z,13.23
2018-07-25T04:36:11.132Z,13.67
2018-07-25T04:41:13.321Z,13.93
2018-07-25T04:46:15.540Z,14.27
2018-07-25T04:51:17.616Z,14.20
2018-07-25T04:56:19.757Z,12.83
2018-07-25T05:01:21.907Z,13.43
2018-07-25T05:06:24.043Z,13.10
2018-07-25T05:11:26.193Z,12.20
2018-07-25T05:16:28.356Z,12.23
2018-07-25T05:21:30.527Z,12.60
2018-07-25T05:26:32.674Z,11.80
2018-07-25T05:31:34.847Z,11.80
2018-07-25T05:36:37.029Z,11.63
2018-07-25T05:41:39.805Z,13.27
2018-07-25T05:46:41.967Z,12.70
2018-07-25T05:51:44.154Z,12.50
2018-07-25T05:56:46.314Z,11.90
2018-07-25T06:01:48.478Z,11.30
2018-07-25T06:06:50.673Z,11.80
2018-07-25T06:11:52.833Z,11.03
2018-07-25T06:16:55.011Z,12.07
2018-07-25T06:21:57.197Z,13.10
2018-07-25T06:26:59.357Z,14.00
2018-07-25T06:32:01.521Z,14.17
2018-07-25T06:37:03.707Z,12.90
2018-07-25T06:42:05.909Z,13.50
2018-07-25T06:47:08.053Z,13.00
2018-07-25T06:52:10.217Z,12.70
2018-07-25T06:57:12.380Z,12.30
2018-07-25T07:02:14.571Z,12.33
2018-07-25T07:07:16.741Z,12.93
2018-07-25T07:12:18.901Z,12.23
2018-07-25T07:17:21.103Z,13.70
2018-07-25T07:22:23.237Z,12.40
2018-07-25T07:27:25.390Z,12.70
2018-07-25T07:32:27.553Z,12.83
2018-07-25T07:37:29.785Z,13.80
2018-07-25T07:42:31.888Z,13.33
2018-07-25T07:47:34.079Z,12.53
2018-07-25T07:52:36.266Z,11.70
2018-07-25T07:57:38.440Z,11.47
2018-07-25T08:02:40.621Z,11.90
2018-07-25T08:07:42.799Z,12.07
2018-07-25T08:12:44.989Z,11.70
2018-07-25T08:17:47.257Z,12.30
2018-07-25T08:22:49.334Z,11.20
2018-07-25T08:27:51.483Z,10.73
2018-07-25T08:32:53.666Z,11.00
2018-07-25T08:37:55.843Z,11.50
2018-07-25T08:42:57.977Z,10.57
2018-07-25T08:48:00.136Z,10.73
2018-07-25T08:53:02.290Z,10.23
2018-07-25T08:58:04.468Z,10.30
2018-07-25T09:03:06.638Z,10.63
2018-07-25T09:08:09.161Z,11.10
2018-07-25T09:13:11.395Z,9.90
2018-07-25T09:18:13.473Z,10.50
2018-07-25T09:23:15.610Z,10.00
2018-07-25T09:28:17.741Z,11.20
2018-07-25T09:33:19.942Z,11.10
2018-07-25T09:38:22.126Z,10.10
2018-07-25T09:43:24.357Z,10.57
2018-07-25T09:48:26.561Z,10.17
2018-07-25T09:53:28.765Z,9.97
2018-07-25T09:58:30.897Z,9.37
2018-07-25T10:03:33.049Z,9.17
2018-07-25T10:08:35.191Z,8.50
2018-07-25T10:13:37.357Z,8.20
2018-07-25T10:18:39.506Z,8.00
2018-07-25T10:23:41.794Z,7.40
2018-07-25T10:28:43.944Z,7.97
2018-07-25T10:33:46.087Z,8.00
2018-07-25T10:38:48.262Z,8.03
2018-07-25T10:43:50.427Z,9.00
2018-07-25T10:48:52.684Z,9.20
2018-07-25T10:53:54.835Z,8.90
2018-07-25T10:58:57.011Z,9.47
2018-07-25T11:03:59.182Z,9.10
2018-07-25T11:09:01.378Z,8.60
2018-07-25T11:14:03.555Z,10.20
2018-07-25T11:19:05.715Z,8.60
2018-07-25T11:24:07.878Z,8.00
2018-07-25T11:29:10.016Z,8.60
2018-07-25T11:34:12.197Z,8.10
2018-07-25T11:39:14.350Z,7.70
2018-07-25T11:44:16.487Z,7.90
2018-07-25T11:49:18.675Z,7.23
2018-07-25T11:54:20.838Z,7.27
2018-07-25T11:59:22.977Z,7.33
2018-07-25T12:04:25.134Z,7.03
2018-07-25T12:09:27.288Z,6.90
2018-07-25T12:14:29.477Z,6.87
2018-07-25T12:19:31.637Z,6.57
2018-07-25T12:24:33.826Z,6.80
2018-07-25T12:29:35.993Z,6.63
2018-07-25T12:34:38.151Z,6.83
2018-07-25T12:39:40.333Z,7.60
2018-07-25T12:44:42.546Z,6.63
2018-07-25T12:49:44.709Z,7.40
2018-07-25T12:54:46.869Z,7.60
2018-07-25T12:59:49.038Z,7.43
2018-07-25T13:04:51.213Z,7.77
2018-07-25T13:09:53.394Z,8.23
2018-07-25T13:14:55.594Z,6.73
2018-07-25T13:19:57.738Z,5.90
2018-07-25T13:24:59.913Z,11.57
2018-07-25T13:30:02.114Z,6.57
2018-07-25T13:35:04.341Z,6.50
2018-07-25T13:40:06.614Z,6.57
2018-07-25T13:45:08.798Z,7.10
2018-07-25T13:50:10.999Z,6.30
2018-07-25T13:55:13.165Z,6.20
2018-07-25T14:00:15.366Z,5.93
2018-07-25T14:05:17.573Z,5.60
2018-07-25T14:10:19.731Z,5.80
2018-07-25T14:15:22.385Z,5.60
2018-07-25T14:20:24.548Z,5.90
2018-07-25T14:25:26.734Z,5.00
2018-07-25T14:30:29.036Z,5.50
2018-07-25T14:35:31.051Z,5.20
2018-07-25T14:40:33.227Z,5.40
2018-07-25T14:45:35.343Z,5.93
2018-07-25T14:50:37.473Z,5.80
2018-07-25T14:55:39.640Z,6.10
2018-07-25T15:00:41.789Z,5.43
2018-07-25T15:05:43.933Z,7.47
2018-07-25T15:10:46.094Z,5.40
2018-07-25T15:15:48.269Z,5.60
2018-07-25T15:20:50.405Z,5.40
2018-07-25T15:25:52.573Z,5.80
2018-07-25T15:30:54.749Z,5.20
2018-07-25T15:35:56.925Z,5.47
2018-07-25T15:40:59.093Z,4.93
2018-07-25T15:46:01.264Z,5.40
2018-07-25T15:51:03.450Z,4.90
2018-07-25T15:56:05.711Z,4.77
2018-07-25T16:01:07.982Z,5.20
2018-07-25T16:06:10.139Z,5.10
2018-07-25T16:11:12.593Z,5.00
2018-07-25T16:16:14.805Z,4.80
2018-07-25T16:21:17.367Z,5.00
2018-07-25T16:26:19.553Z,3.57
2018-07-25T16:31:21.758Z,3.50
2018-07-25T16:36:23.942Z,2.80
2018-07-25T16:41:26.142Z,2.90
2018-07-25T16:46:28.338Z,2.90
2018-07-25T16:51:30.513Z,3.07
2018-07-25T16:56:32.751Z,2.97
2018-07-25T17:01:34.826Z,2.67
2018-07-25T17:06:36.989Z,2.67
2018-07-25T17:11:39.270Z,2.47
2018-07-25T17:16:41.448Z,2.50
2018-07-25T17:21:43.613Z,2.73
2018-07-25T17:26:45.762Z,2.50
2018-07-25T17:31:47.930Z,2.70
2018-07-25T17:36:50.073Z,2.87
2018-07-25T17:41:52.217Z,3.53
2018-07-25T17:46:54.364Z,2.80
2018-07-25T17:51:56.701Z,3.40
2018-07-25T17:56:58.928Z,3.50
2018-07-25T18:02:01.036Z,3.17
2018-07-25T18:07:03.197Z,3.37
2018-07-25T18:12:05.357Z,4.00
2018-07-25T18:17:07.555Z,3.60
2018-07-25T18:22:09.682Z,3.50
2018-07-25T18:27:11.805Z,4.07
2018-07-25T18:32:13.982Z,3.67
2018-07-25T18:37:16.128Z,3.73
2018-07-25T18:42:18.313Z,3.70
2018-07-25T18:47:20.495Z,3.40
2018-07-25T18:52:22.677Z,4.33
2018-07-25T18:57:24.853Z,4.10
2018-07-25T19:02:27.006Z,4.03
2018-07-25T19:07:29.262Z,4.00
2018-07-25T19:12:31.326Z,4.27
2018-07-25T19:17:33.473Z,4.37
2018-07-25T19:22:35.669Z,4.20
2018-07-25T19:27:37.830Z,3.70
2018-07-25T19:32:39.988Z,3.60
2018-07-25T19:37:42.281Z,3.73
2018-07-25T19:42:44.442Z,3.97
2018-07-25T19:47:46.597Z,3.63
2018-07-25T19:52:48.764Z,4.23
2018-07-25T19:57:50.941Z,3.73
2018-07-25T20:02:53.223Z,3.80
2018-07-25T20:07:55.382Z,4.00
2018-07-25T20:12:57.602Z,4.60
2018-07-25T20:17:59.815Z,4.17
2018-07-25T20:23:01.940Z,4.20
2018-07-25T20:28:04.330Z,4.00
2018-07-25T20:33:06.461Z,3.90
2018-07-25T20:38:08.643Z,4.30
2018-07-25T20:43:10.783Z,2.97
2018-07-25T20:48:12.918Z,2.80
2018-07-25T20:53:15.053Z,3.20
2018-07-25T20:58:17.216Z,3.10
2018-07-25T21:03:19.367Z,3.23
2018-07-25T21:08:22.296Z,3.30
2018-07-25T21:13:24.442Z,3.17
2018-07-25T21:18:26.582Z,3.20
2018-07-25T21:23:28.794Z,2.90
2018-07-25T21:28:30.913Z,3.30
2018-07-25T21:33:33.060Z,3.63
2018-07-25T21:38:35.193Z,3.80
2018-07-25T21:43:37.337Z,3.70
2018-07-25T21:48:39.469Z,3.70
2018-07-25T21:53:41.617Z,3.60
2018-07-25T21:58:43.744Z,3.40
2018-07-25T22:03:46.088Z,4.13
2018-07-25T22:08:48.248Z,3.93
2018-07-25T22:13:54.947Z,3.93
2018-07-25T22:18:57.077Z,3.80
2018-07-25T22:23:59.233Z,4.30
2018-07-25T22:29:01.414Z,3.97
2018-07-25T22:34:03.564Z,4.17
2018-07-25T22:39:07.461Z,4.03
2018-07-25T22:44:10.457Z,4.10
2018-07-25T22:49:12.597Z,4.20
2018-07-25T22:54:14.741Z,4.10
2018-07-25T22:59:16.882Z,4.00
2018-07-25T23:04:19.086Z,4.67
2018-07-25T23:09:21.228Z,4.30
2018-07-25T23:14:23.396Z,4.57
2018-07-25T23:19:25.721Z,4.10
2018-07-25T23:24:27.875Z,4.07
2018-07-25T23:29:30.073Z,4.70
2018-07-25T23:34:32.168Z,4.10
2018-07-25T23:39:34.297Z,4.30
2018-07-25T23:44:36.429Z,4.30
2018-07-25T23:49:38.562Z,4.60
2018-07-25T23:54:40.705Z,5.00
2018-07-25T23:59:42.834Z,4.20
